Time;durP1;ratioP1;P1;durP2;ratioP2;P2;SDS_P1;SDS_P2;PMS_P1;PMS_P2;Temp;Humidity;BMP_temperature;BMP_pressure;BME280_temperature;BME280_humidity;BME280_pressure;Samples;Min_cycle;Max_cycle;Signal;HPM_P1;HPM_P2
2023/01/24 00:00:51;;;;;;;;;;;1.90;1.00;;;;;;5032588;28;19921;-75
2023/01/24 00:03:17;;;;;;;;;;;2.00;1.00;;;;;;5031254;28;19909;-75
2023/01/24 00:05:44;;;;;;;;;;;2.00;1.00;;;;;;5056683;28;19932;-75
2023/01/24 00:08:12;;;;;;;;;;;2.00;1.00;;;;;;5044472;28;20285;-75
2023/01/24 00:10:38;;;;;;;;;;;2.00;1.00;;;;;;5051418;28;20377;-76
2023/01/24 00:13:04;;;;;;;;;;;2.00;1.00;;;;;;5051124;28;19912;-76
2023/01/24 00:15:31;;;;;;;;;;;2.00;1.00;;;;;;5049111;28;19941;-74
2023/01/24 00:17:57;;;;;;;;;;;2.10;1.00;;;;;;5051477;28;19940;-76
2023/01/24 00:20:23;;;;;;;;;;;2.10;1.00;;;;;;5038817;28;19995;-75
2023/01/24 00:22:49;;;;;;;;;;;2.10;1.00;;;;;;5049940;28;19909;-76
2023/01/24 00:25:15;;;;;;;;;;;2.00;1.00;;;;;;5043826;28;19955;-77
2023/01/24 00:27:41;;;;;;;;;;;2.00;1.00;;;;;;5052320;28;19909;-76
2023/01/24 00:30:08;;;;;;;;;;;2.00;1.00;;;;;;5051306;28;19909;-76
2023/01/24 00:32:34;;;;;;;;;;;2.00;1.00;;;;;;5051462;28;20273;-76
2023/01/24 00:35:00;;;;;;;;;;;1.90;1.00;;;;;;5049945;28;20266;-79
2023/01/24 00:37:26;;;;;;;;;;;1.90;1.00;;;;;;5051478;28;19999;-75
2023/01/24 00:39:52;;;;;;;;;;;1.90;1.00;;;;;;5030920;28;19917;-76
2023/01/24 00:42:18;;;;;;;;;;;1.90;1.00;;;;;;5049934;28;20722;-76
2023/01/24 00:44:44;;;;;;;;;;;1.90;1.00;;;;;;5048705;28;19948;-76
2023/01/24 00:47:10;;;;;;;;;;;1.90;1.00;;;;;;5049666;28;20316;-76
2023/01/24 00:49:36;;;;;;;;;;;1.80;1.00;;;;;;5033455;28;19909;-76
2023/01/24 00:52:02;;;;;;;;;;;1.80;1.00;;;;;;5050610;28;20310;-77
2023/01/24 00:54:28;;;;;;;;;;;1.80;1.00;;;;;;5049592;28;19920;-76
2023/01/24 00:56:54;;;;;;;;;;;1.70;1.00;;;;;;5051261;28;19928;-76
2023/01/24 00:59:20;;;;;;;;;;;1.70;1.00;;;;;;5064882;28;20509;-76
2023/01/24 01:01:46;;;;;;;;;;;1.70;1.00;;;;;;5034139;28;19912;-76
2023/01/24 01:04:12;;;;;;;;;;;1.70;1.00;;;;;;5030234;28;19909;-77
2023/01/24 01:06:38;;;;;;;;;;;1.80;1.00;;;;;;5030190;28;19913;-76
2023/01/24 01:09:04;;;;;;;;;;;1.80;1.00;;;;;;5031086;28;20278;-76
2023/01/24 01:11:30;;;;;;;;;;;1.80;1.00;;;;;;5031582;28;20007;-76
2023/01/24 01:13:58;;;;;;;;;;;1.80;1.00;;;;;;5060459;28;19917;-78
2023/01/24 01:16:24;;;;;;;;;;;1.80;1.00;;;;;;5050312;28;20270;-76
2023/01/24 01:18:53;;;;;;;;;;;1.70;1.00;;;;;;5053733;28;19914;-76
2023/01/24 01:21:20;;;;;;;;;;;1.70;1.00;;;;;;5054020;28;19908;-76
2023/01/24 01:23:46;;;;;;;;;;;1.70;1.00;;;;;;5053394;28;19915;-76
2023/01/24 01:26:16;;;;;;;;;;;1.80;1.00;;;;;;5052621;28;19908;-75
2023/01/24 01:28:42;;;;;;;;;;;1.80;1.00;;;;;;5054693;28;19909;-76
2023/01/24 01:31:08;;;;;;;;;;;1.80;1.00;;;;;;5054214;28;19919;-75
2023/01/24 01:33:35;;;;;;;;;;;1.80;1.00;;;;;;5040383;28;19909;-76
2023/01/24 01:36:01;;;;;;;;;;;1.80;1.00;;;;;;5052405;28;19909;-78
2023/01/24 01:38:28;;;;;;;;;;;1.80;1.00;;;;;;5033847;28;19919;-78
2023/01/24 01:40:54;;;;;;;;;;;1.70;1.00;;;;;;5053489;28;19916;-77
2023/01/24 01:43:22;;;;;;;;;;;1.70;1.00;;;;;;5053574;28;20507;-75
2023/01/24 01:45:49;;;;;;;;;;;1.80;1.00;;;;;;5052055;28;20284;-76
2023/01/24 01:48:18;;;;;;;;;;;1.70;1.00;;;;;;5053914;28;19958;-76
2023/01/24 01:50:48;;;;;;;;;;;1.70;1.00;;;;;;5052961;28;19909;-75
2023/01/24 01:53:15;;;;;;;;;;;1.70;1.00;;;;;;5052594;28;20247;-77
2023/01/24 01:55:43;;;;;;;;;;;1.80;1.00;;;;;;5053156;28;20368;-77
2023/01/24 01:58:09;;;;;;;;;;;1.80;1.00;;;;;;5035724;28;20281;-77
2023/01/24 02:00:35;;;;;;;;;;;1.80;1.00;;;;;;5036517;28;19924;-76
2023/01/24 02:05:48;;;;;;;;;;;1.90;1.00;;;;;;5051553;28;19920;-76
2023/01/24 02:08:18;;;;;;;;;;;1.90;1.00;;;;;;5053690;28;19905;-77
2023/01/24 02:13:29;;;;;;;;;;;1.90;1.00;;;;;;5052667;28;19913;-78
2023/01/24 02:16:05;;;;;;;;;;;1.90;1.00;;;;;;5047369;28;19905;-80
2023/01/24 02:18:32;;;;;;;;;;;2.00;1.00;;;;;;5049890;28;19923;-79
2023/01/24 02:20:58;;;;;;;;;;;2.00;1.00;;;;;;5052844;28;19904;-78
2023/01/24 02:23:27;;;;;;;;;;;2.10;1.00;;;;;;5053255;28;19904;-78
2023/01/24 02:26:14;;;;;;;;;;;2.10;1.00;;;;;;5068632;28;19908;-78
2023/01/24 02:28:42;;;;;;;;;;;2.10;1.00;;;;;;5068120;28;19976;-79
2023/01/24 02:31:08;;;;;;;;;;;2.20;1.00;;;;;;5053426;28;19939;-78
2023/01/24 02:33:34;;;;;;;;;;;2.10;1.00;;;;;;5053895;28;19916;-79
2023/01/24 02:36:20;;;;;;;;;;;2.20;1.00;;;;;;5059093;28;20277;-81
2023/01/24 02:38:53;;;;;;;;;;;2.20;1.00;;;;;;5048207;28;19916;-78
2023/01/24 02:41:21;;;;;;;;;;;2.20;1.00;;;;;;5052961;28;19919;-78
2023/01/24 02:43:49;;;;;;;;;;;2.20;1.00;;;;;;5039264;28;19935;-77
2023/01/24 02:46:16;;;;;;;;;;;2.20;1.00;;;;;;5052532;28;19917;-78
2023/01/24 02:48:42;;;;;;;;;;;2.20;1.00;;;;;;5038794;28;19909;-77
2023/01/24 02:53:53;;;;;;;;;;;2.20;1.00;;;;;;5052385;28;19916;-78
2023/01/24 02:59:04;;;;;;;;;;;2.30;1.00;;;;;;5042863;28;20279;-80
2023/01/24 03:01:32;;;;;;;;;;;2.30;1.00;;;;;;5024571;28;19917;-79
2023/01/24 03:03:58;;;;;;;;;;;2.20;1.00;;;;;;5051749;28;19915;-77
2023/01/24 03:06:24;;;;;;;;;;;2.30;1.00;;;;;;5051280;28;20495;-78
2023/01/24 03:08:51;;;;;;;;;;;2.20;1.00;;;;;;5047742;28;20278;-77
2023/01/24 03:11:30;;;;;;;;;;;2.20;1.00;;;;;;5046333;28;20749;-80
2023/01/24 03:36:01;;;;;;;;;;;2.00;1.00;;;;;;5041799;28;19909;-77
2023/01/24 03:41:17;;;;;;;;;;;2.10;1.00;;;;;;5042421;28;19908;-78
2023/01/24 03:43:43;;;;;;;;;;;2.00;1.00;;;;;;5035850;28;19912;-77
2023/01/24 03:46:11;;;;;;;;;;;2.10;1.00;;;;;;5034791;28;20253;-77
2023/01/24 03:48:50;;;;;;;;;;;2.20;1.00;;;;;;5036424;28;20388;-77
2023/01/24 03:54:04;;;;;;;;;;;2.20;1.00;;;;;;5050213;28;19916;-80
2023/01/24 03:56:38;;;;;;;;;;;2.20;1.00;;;;;;5035322;28;19909;-78
2023/01/24 03:59:06;;;;;;;;;;;2.10;1.00;;;;;;5062837;28;19917;-80
2023/01/24 04:01:35;;;;;;;;;;;2.10;1.00;;;;;;5033752;28;19924;-79
2023/01/24 04:04:07;;;;;;;;;;;2.10;1.00;;;;;;5048515;28;19916;-82
2023/01/24 04:06:33;;;;;;;;;;;2.10;1.00;;;;;;5051401;28;19915;-78
2023/01/24 04:09:02;;;;;;;;;;;2.10;1.00;;;;;;5049617;28;19911;-78
2023/01/24 04:11:29;;;;;;;;;;;2.10;1.00;;;;;;5052635;28;19926;-77
2023/01/24 04:14:03;;;;;;;;;;;2.10;1.00;;;;;;5031371;28;19913;-77
2023/01/24 04:16:30;;;;;;;;;;;2.10;1.00;;;;;;5030735;28;20008;-77
2023/01/24 04:19:17;;;;;;;;;;;2.10;1.00;;;;;;5048941;28;19923;-77
2023/01/24 04:21:43;;;;;;;;;;;2.10;1.00;;;;;;5043415;28;19912;-78
2023/01/24 04:24:11;;;;;;;;;;;2.10;1.00;;;;;;5048264;28;19908;-77
2023/01/24 04:26:40;;;;;;;;;;;2.10;1.00;;;;;;5034337;28;19905;-77
2023/01/24 04:29:10;;;;;;;;;;;2.10;1.00;;;;;;5049139;28;19913;-78
2023/01/24 04:31:36;;;;;;;;;;;2.10;1.00;;;;;;5033168;28;19909;-78
2023/01/24 04:34:22;;;;;;;;;;;2.10;1.00;;;;;;5049694;28;19909;-78
2023/01/24 04:36:48;;;;;;;;;;;2.10;1.00;;;;;;5066322;28;19909;-77
2023/01/24 04:39:14;;;;;;;;;;;2.10;1.00;;;;;;5049146;28;20366;-77
2023/01/24 04:41:53;;;;;;;;;;;2.10;1.00;;;;;;5066272;28;20230;-78
2023/01/24 04:44:19;;;;;;;;;;;2.10;1.00;;;;;;5064336;28;19912;-77
2023/01/24 04:46:46;;;;;;;;;;;2.10;1.00;;;;;;5048373;28;19912;-74
2023/01/24 04:49:12;;;;;;;;;;;2.10;1.00;;;;;;5045815;28;19908;-77
2023/01/24 04:51:42;;;;;;;;;;;2.20;1.00;;;;;;5038097;28;19916;-76
2023/01/24 04:54:11;;;;;;;;;;;2.20;1.00;;;;;;5032274;28;19916;-76
2023/01/24 04:56:38;;;;;;;;;;;2.20;1.00;;;;;;5053456;28;19909;-76
2023/01/24 04:59:04;;;;;;;;;;;2.20;1.00;;;;;;5036096;28;19940;-76
2023/01/24 05:01:31;;;;;;;;;;;2.20;1.00;;;;;;5047633;28;19925;-75
2023/01/24 05:04:08;;;;;;;;;;;2.20;1.00;;;;;;5051088;28;19909;-78
2023/01/24 05:06:34;;;;;;;;;;;2.20;1.00;;;;;;5049223;28;19916;-76
2023/01/24 05:09:00;;;;;;;;;;;2.20;1.00;;;;;;5033304;28;19909;-77
2023/01/24 05:11:36;;;;;;;;;;;2.20;1.00;;;;;;5052466;28;19908;-77
2023/01/24 05:14:04;;;;;;;;;;;2.20;1.00;;;;;;5036029;28;20262;-78
2023/01/24 05:16:30;;;;;;;;;;;2.20;1.00;;;;;;5038167;28;19909;-77
2023/01/24 05:18:57;;;;;;;;;;;2.20;1.00;;;;;;5053233;28;20277;-75
2023/01/24 05:21:24;;;;;;;;;;;2.20;1.00;;;;;;5061596;28;19908;-77
2023/01/24 05:23:52;;;;;;;;;;;2.20;1.00;;;;;;5052228;28;20370;-76
2023/01/24 05:26:21;;;;;;;;;;;2.20;1.00;;;;;;5052787;28;19920;-77
2023/01/24 05:28:48;;;;;;;;;;;2.20;1.00;;;;;;5053328;28;20272;-76
2023/01/24 05:31:14;;;;;;;;;;;2.10;1.00;;;;;;5042724;28;19916;-77
2023/01/24 05:33:41;;;;;;;;;;;2.20;1.00;;;;;;5049111;28;19912;-76
2023/01/24 05:36:25;;;;;;;;;;;2.10;1.00;;;;;;5054966;28;19920;-76
2023/01/24 05:38:52;;;;;;;;;;;2.10;1.00;;;;;;5050711;28;19923;-76
2023/01/24 05:41:19;;;;;;;;;;;2.20;1.00;;;;;;5034435;28;20362;-76
2023/01/24 05:43:47;;;;;;;;;;;2.10;1.00;;;;;;5049700;28;19913;-80
2023/01/24 05:46:18;;;;;;;;;;;2.10;1.00;;;;;;5052708;28;19909;-77
2023/01/24 05:48:54;;;;;;;;;;;2.10;1.00;;;;;;5053794;28;19909;-79
2023/01/24 05:51:20;;;;;;;;;;;2.10;1.00;;;;;;5052684;28;19916;-75
2023/01/24 05:53:47;;;;;;;;;;;2.10;1.00;;;;;;5048718;28;19909;-74
2023/01/24 05:56:19;;;;;;;;;;;2.20;1.00;;;;;;5051988;28;19916;-77
2023/01/24 05:58:47;;;;;;;;;;;2.10;1.00;;;;;;5068809;28;19909;-74
2023/01/24 06:01:17;;;;;;;;;;;2.20;1.00;;;;;;5051555;28;19916;-82
2023/01/24 06:03:45;;;;;;;;;;;2.20;1.00;;;;;;5046196;28;19909;-80
2023/01/24 06:06:13;;;;;;;;;;;2.10;1.00;;;;;;5052591;28;19909;-81
2023/01/24 06:08:39;;;;;;;;;;;2.10;1.00;;;;;;5035677;28;19913;-82
2023/01/24 06:11:12;;;;;;;;;;;2.10;1.00;;;;;;5041375;28;19909;-84
2023/01/24 06:13:39;;;;;;;;;;;2.10;1.00;;;;;;5037423;28;19913;-85
2023/01/24 06:16:06;;;;;;;;;;;2.10;1.00;;;;;;5055642;28;19909;-81
2023/01/24 06:18:33;;;;;;;;;;;2.20;1.00;;;;;;5039357;28;19908;-82
2023/01/24 06:21:26;;;;;;;;;;;2.10;1.00;;;;;;5035460;28;19924;-83
2023/01/24 06:23:54;;;;;;;;;;;2.10;1.00;;;;;;5036508;28;19916;-81
2023/01/24 06:26:21;;;;;;;;;;;2.20;1.00;;;;;;5042784;28;19909;-81
2023/01/24 06:28:47;;;;;;;;;;;2.20;1.00;;;;;;5053049;28;19912;-79
2023/01/24 06:31:23;;;;;;;;;;;2.10;1.00;;;;;;5038932;28;19909;-82
2023/01/24 06:34:09;;;;;;;;;;;2.10;1.00;;;;;;5052514;28;19913;-83
2023/01/24 06:37:00;;;;;;;;;;;2.10;1.00;;;;;;5037702;28;19932;-82
2023/01/24 06:39:26;;;;;;;;;;;2.10;1.00;;;;;;5049855;28;19916;-83
2023/01/24 06:41:52;;;;;;;;;;;2.10;1.00;;;;;;5061417;28;20389;-82
2023/01/24 06:44:18;;;;;;;;;;;2.10;1.00;;;;;;5051720;28;19923;-82
2023/01/24 06:46:44;;;;;;;;;;;2.10;1.00;;;;;;5033628;28;19909;-82
2023/01/24 06:49:11;;;;;;;;;;;2.10;1.00;;;;;;5053414;28;19908;-83
2023/01/24 06:51:37;;;;;;;;;;;2.10;1.00;;;;;;5053446;28;19904;-82
2023/01/24 06:54:03;;;;;;;;;;;2.10;1.00;;;;;;5051772;28;19909;-83
2023/01/24 06:56:29;;;;;;;;;;;2.10;1.00;;;;;;5061264;28;19913;-83
2023/01/24 06:58:55;;;;;;;;;;;2.10;1.00;;;;;;5058539;28;20007;-83
2023/01/24 07:01:21;;;;;;;;;;;2.10;1.00;;;;;;5041778;28;19996;-80
2023/01/24 07:03:47;;;;;;;;;;;2.00;1.00;;;;;;5063457;28;19908;-79
2023/01/24 07:06:13;;;;;;;;;;;2.10;1.00;;;;;;5056457;28;19915;-79
2023/01/24 07:08:39;;;;;;;;;;;2.10;1.00;;;;;;5054966;28;20362;-82
2023/01/24 07:11:05;;;;;;;;;;;2.10;1.00;;;;;;5054084;28;19947;-80
2023/01/24 07:13:31;;;;;;;;;;;2.10;1.00;;;;;;5051169;28;19920;-83
2023/01/24 07:16:01;;;;;;;;;;;2.10;1.00;;;;;;5050440;28;20365;-83
2023/01/24 07:18:27;;;;;;;;;;;2.10;1.00;;;;;;5047218;28;19908;-80
2023/01/24 07:20:53;;;;;;;;;;;2.10;1.00;;;;;;5051485;28;19924;-81
2023/01/24 07:23:21;;;;;;;;;;;2.10;1.00;;;;;;5050637;28;19920;-80
2023/01/24 07:25:47;;;;;;;;;;;2.10;1.00;;;;;;5051500;28;19908;-82
2023/01/24 07:28:13;;;;;;;;;;;2.10;1.00;;;;;;5050882;28;20322;-79
2023/01/24 07:30:39;;;;;;;;;;;2.10;1.00;;;;;;5051481;28;19991;-80
2023/01/24 07:33:05;;;;;;;;;;;2.10;1.00;;;;;;5032188;28;20023;-81
2023/01/24 07:35:31;;;;;;;;;;;2.10;1.00;;;;;;5041356;28;20237;-82
2023/01/24 07:37:59;;;;;;;;;;;2.10;1.00;;;;;;5053526;28;19992;-82
2023/01/24 07:40:25;;;;;;;;;;;2.10;1.00;;;;;;5066045;28;19930;-80
2023/01/24 07:42:51;;;;;;;;;;;2.10;1.00;;;;;;5065188;28;19982;-80
2023/01/24 07:45:20;;;;;;;;;;;2.10;1.00;;;;;;5063567;28;19915;-81
2023/01/24 07:47:46;;;;;;;;;;;2.10;1.00;;;;;;5054457;28;19916;-80
2023/01/24 07:50:12;;;;;;;;;;;2.10;1.00;;;;;;5035042;28;19916;-78
2023/01/24 07:52:38;;;;;;;;;;;2.10;1.00;;;;;;5051112;28;19905;-81
2023/01/24 07:55:04;;;;;;;;;;;2.10;1.00;;;;;;5052182;28;19931;-83
2023/01/24 07:57:30;;;;;;;;;;;2.10;1.00;;;;;;5053108;28;20326;-82
2023/01/24 07:59:56;;;;;;;;;;;2.20;1.00;;;;;;5052302;28;19924;-83
2023/01/24 08:02:22;;;;;;;;;;;2.20;1.00;;;;;;5051589;28;19947;-79
2023/01/24 08:04:48;;;;;;;;;;;2.20;1.00;;;;;;5050844;28;19909;-82
2023/01/24 08:07:17;;;;;;;;;;;2.20;1.00;;;;;;5043786;28;19916;-82
2023/01/24 08:09:43;;;;;;;;;;;2.20;1.00;;;;;;5037212;28;20392;-80
2023/01/24 08:12:09;;;;;;;;;;;2.20;1.00;;;;;;5036938;28;19920;-81
2023/01/24 08:14:35;;;;;;;;;;;2.20;1.00;;;;;;5049046;28;19947;-79
2023/01/24 08:17:01;;;;;;;;;;;2.30;1.00;;;;;;5050479;28;19952;-79
2023/01/24 08:19:27;;;;;;;;;;;2.30;1.00;;;;;;5051734;28;20387;-78
2023/01/24 08:21:53;;;;;;;;;;;2.30;1.00;;;;;;5052048;28;19971;-79
2023/01/24 08:24:19;;;;;;;;;;;2.30;1.00;;;;;;5065161;28;19943;-80
2023/01/24 08:26:48;;;;;;;;;;;2.30;1.00;;;;;;5050215;28;20000;-80
2023/01/24 08:29:15;;;;;;;;;;;2.30;1.00;;;;;;5049693;28;19909;-82
2023/01/24 08:31:41;;;;;;;;;;;2.30;1.00;;;;;;5054044;28;19909;-81
2023/01/24 08:34:07;;;;;;;;;;;2.30;1.00;;;;;;5049807;28;19915;-81
2023/01/24 08:36:32;;;;;;;;;;;2.30;1.00;;;;;;5053707;28;20416;-80
2023/01/24 08:38:59;;;;;;;;;;;2.30;1.00;;;;;;5052863;28;20074;-78
2023/01/24 08:41:24;;;;;;;;;;;2.30;1.00;;;;;;5054792;28;19912;-78
2023/01/24 08:43:53;;;;;;;;;;;2.30;1.00;;;;;;5048467;28;20007;-81
2023/01/24 08:46:19;;;;;;;;;;;2.40;1.00;;;;;;5056219;28;19920;-81
2023/01/24 08:48:45;;;;;;;;;;;2.40;1.00;;;;;;5055752;28;19909;-80
2023/01/24 08:51:11;;;;;;;;;;;2.40;1.00;;;;;;5055542;28;19915;-79
2023/01/24 08:53:37;;;;;;;;;;;2.40;1.00;;;;;;5053614;28;19953;-84
2023/01/24 08:56:03;;;;;;;;;;;2.40;1.00;;;;;;5055425;28;19936;-82
2023/01/24 08:58:32;;;;;;;;;;;2.40;1.00;;;;;;5064541;28;19913;-82
2023/01/24 09:00:58;;;;;;;;;;;2.40;1.00;;;;;;5055503;28;19917;-82
2023/01/24 09:03:24;;;;;;;;;;;2.40;1.00;;;;;;5053994;28;19912;-80
2023/01/24 09:05:55;;;;;;;;;;;2.50;1.00;;;;;;5060546;28;20384;-80
2023/01/24 09:08:21;;;;;;;;;;;2.50;1.00;;;;;;5047344;28;19909;-83
2023/01/24 09:10:46;;;;;;;;;;;2.50;1.00;;;;;;5040732;28;20019;-81
2023/01/24 09:13:12;;;;;;;;;;;2.50;1.00;;;;;;5047063;28;19924;-79
2023/01/24 09:15:38;;;;;;;;;;;2.60;1.00;;;;;;5035630;28;19970;-79
2023/01/24 09:18:04;;;;;;;;;;;2.60;1.00;;;;;;5036224;28;19909;-80
2023/01/24 09:20:30;;;;;;;;;;;2.70;1.00;;;;;;5054070;28;19912;-79
2023/01/24 09:22:56;;;;;;;;;;;2.70;1.00;;;;;;5070314;28;19917;-79
2023/01/24 09:25:22;;;;;;;;;;;2.60;1.00;;;;;;5053857;28;19924;-79
2023/01/24 09:27:52;;;;;;;;;;;2.60;1.00;;;;;;5055556;28;20281;-79
2023/01/24 09:30:18;;;;;;;;;;;2.70;1.00;;;;;;5053509;28;19987;-81
2023/01/24 09:32:44;;;;;;;;;;;2.70;1.00;;;;;;5053297;28;20364;-81
2023/01/24 09:35:10;;;;;;;;;;;2.70;1.00;;;;;;5054580;28;19999;-80
2023/01/24 09:37:36;;;;;;;;;;;2.70;1.00;;;;;;5053634;28;19908;-82
2023/01/24 09:40:02;;;;;;;;;;;2.70;1.00;;;;;;5055263;28;20280;-82
2023/01/24 09:42:52;;;;;;;;;;;2.70;1.00;;;;;;5056872;28;19912;-82
2023/01/24 09:45:22;;;;;;;;;;;2.80;1.00;;;;;;5043913;28;19920;-84
2023/01/24 09:48:10;;;;;;;;;;;2.80;1.00;;;;;;5048466;28;19909;-82
2023/01/24 09:50:46;;;;;;;;;;;2.70;1.00;;;;;;5039416;28;19913;-80
2023/01/24 09:53:17;;;;;;;;;;;2.70;1.00;;;;;;5054081;28;19916;-80
2023/01/24 09:55:44;;;;;;;;;;;2.70;1.00;;;;;;5054558;28;19908;-82
2023/01/24 09:58:26;;;;;;;;;;;2.70;1.00;;;;;;5054761;28;19912;-83
2023/01/24 10:00:52;;;;;;;;;;;2.70;1.00;;;;;;5053947;28;19924;-82
2023/01/24 10:03:19;;;;;;;;;;;2.70;1.00;;;;;;5050495;28;19909;-85
2023/01/24 10:05:53;;;;;;;;;;;2.70;1.00;;;;;;5053313;28;19915;-82
2023/01/24 10:08:22;;;;;;;;;;;2.70;1.00;;;;;;5052812;28;19920;-83
2023/01/24 10:10:53;;;;;;;;;;;2.70;1.00;;;;;;5054825;28;19916;-83
2023/01/24 10:13:22;;;;;;;;;;;2.70;1.00;;;;;;5048718;28;19932;-82
2023/01/24 10:15:54;;;;;;;;;;;2.80;1.00;;;;;;5053892;28;19920;-81
2023/01/24 10:18:43;;;;;;;;;;;2.70;1.00;;;;;;5052982;28;19936;-83
2023/01/24 10:21:09;;;;;;;;;;;2.80;1.00;;;;;;5045142;28;19928;-82
2023/01/24 10:23:43;;;;;;;;;;;2.90;1.00;;;;;;5051287;28;19960;-80
2023/01/24 10:26:19;;;;;;;;;;;2.80;1.00;;;;;;5036347;28;19919;-79
2023/01/24 10:28:47;;;;;;;;;;;2.90;1.00;;;;;;5052902;28;20281;-83
2023/01/24 10:31:17;;;;;;;;;;;2.90;1.00;;;;;;5049153;28;19909;-82
2023/01/24 10:33:48;;;;;;;;;;;2.90;1.00;;;;;;5048292;28;19908;-81
2023/01/24 10:36:22;;;;;;;;;;;2.90;1.00;;;;;;5053674;28;19909;-81
2023/01/24 10:38:48;;;;;;;;;;;2.90;1.00;;;;;;5053042;28;19908;-81
2023/01/24 10:41:21;;;;;;;;;;;2.80;1.00;;;;;;5054659;28;19917;-79
2023/01/24 10:43:58;;;;;;;;;;;2.80;1.00;;;;;;5052052;28;19913;-80
2023/01/24 10:46:43;;;;;;;;;;;2.90;1.00;;;;;;5053691;28;20373;-81
2023/01/24 10:49:22;;;;;;;;;;;2.90;1.00;;;;;;5049786;28;19920;-80
2023/01/24 10:52:07;;;;;;;;;;;2.80;1.00;;;;;;5046538;28;19919;-82
2023/01/24 10:54:40;;;;;;;;;;;2.80;1.00;;;;;;5034446;28;19915;-83
2023/01/24 10:57:26;;;;;;;;;;;2.80;1.00;;;;;;5059324;28;20180;-80
2023/01/24 10:59:52;;;;;;;;;;;2.80;1.00;;;;;;5049944;28;19939;-82
2023/01/24 11:02:20;;;;;;;;;;;2.80;1.00;;;;;;5035385;28;19916;-81
2023/01/24 11:04:46;;;;;;;;;;;2.80;1.00;;;;;;5059811;28;19909;-82
2023/01/24 11:07:33;;;;;;;;;;;2.80;1.00;;;;;;5034319;28;19967;-83
2023/01/24 11:10:00;;;;;;;;;;;2.80;1.00;;;;;;5032814;28;20007;-82
2023/01/24 11:12:26;;;;;;;;;;;2.90;1.00;;;;;;5046426;28;19975;-84
2023/01/24 11:14:52;;;;;;;;;;;2.80;1.00;;;;;;5048976;28;19908;-81
2023/01/24 11:17:32;;;;;;;;;;;2.70;1.00;;;;;;5051753;28;20381;-80
2023/01/24 11:20:01;;;;;;;;;;;2.80;1.00;;;;;;5052090;28;20420;-83
2023/01/24 11:22:34;;;;;;;;;;;2.80;1.00;;;;;;5054179;28;20361;-80
2023/01/24 11:25:02;;;;;;;;;;;2.80;1.00;;;;;;5053718;28;19908;-81
2023/01/24 11:27:28;;;;;;;;;;;2.80;1.00;;;;;;5072544;28;19913;-82
2023/01/24 11:30:13;;;;;;;;;;;2.80;1.00;;;;;;5059083;28;19909;-82
2023/01/24 11:32:50;;;;;;;;;;;2.80;1.00;;;;;;5054817;28;19916;-84
2023/01/24 11:35:24;;;;;;;;;;;2.90;1.00;;;;;;5039951;28;19909;-79
2023/01/24 11:37:50;;;;;;;;;;;2.90;1.00;;;;;;5057636;28;19916;-80
2023/01/24 11:40:24;;;;;;;;;;;2.80;1.00;;;;;;5037844;28;20370;-80
2023/01/24 11:42:50;;;;;;;;;;;2.80;1.00;;;;;;5054413;28;19920;-80
2023/01/24 11:45:24;;;;;;;;;;;2.90;1.00;;;;;;5051844;28;19931;-80
2023/01/24 11:48:00;;;;;;;;;;;2.90;1.00;;;;;;5055242;28;19909;-82
2023/01/24 11:50:38;;;;;;;;;;;2.90;1.00;;;;;;5057290;28;19916;-80
2023/01/24 11:53:23;;;;;;;;;;;2.90;1.00;;;;;;5058249;28;19908;-80
2023/01/24 11:55:55;;;;;;;;;;;3.00;1.00;;;;;;5058789;28;19935;-81
2023/01/24 11:58:29;;;;;;;;;;;3.00;1.00;;;;;;5046302;28;19908;-83
2023/01/24 12:01:09;;;;;;;;;;;3.00;1.00;;;;;;5054871;28;19925;-82
2023/01/24 12:03:53;;;;;;;;;;;3.00;1.00;;;;;;5067267;28;19909;-80
2023/01/24 12:06:20;;;;;;;;;;;2.90;1.00;;;;;;5062333;28;19913;-77
2023/01/24 12:09:01;;;;;;;;;;;2.90;1.00;;;;;;5057956;28;19912;-79
2023/01/24 12:11:38;;;;;;;;;;;2.90;1.00;;;;;;5054802;28;19916;-78
2023/01/24 12:14:22;;;;;;;;;;;2.90;1.00;;;;;;5051101;28;19912;-83
2023/01/24 12:16:52;;;;;;;;;;;2.90;1.00;;;;;;5050998;28;20250;-81
2023/01/24 12:19:35;;;;;;;;;;;2.90;1.00;;;;;;5050292;28;19909;-83
2023/01/24 12:22:01;;;;;;;;;;;2.90;1.00;;;;;;5051885;28;19924;-81
2023/01/24 12:24:30;;;;;;;;;;;2.90;1.00;;;;;;5053484;28;19909;-82
2023/01/24 12:26:59;;;;;;;;;;;2.90;1.00;;;;;;5051332;28;20358;-80
2023/01/24 12:29:31;;;;;;;;;;;2.90;1.00;;;;;;5051766;28;19911;-80
2023/01/24 12:32:08;;;;;;;;;;;2.90;1.00;;;;;;5052203;28;20353;-82
2023/01/24 12:34:40;;;;;;;;;;;2.90;1.00;;;;;;5050290;28;19909;-82
2023/01/24 12:37:18;;;;;;;;;;;2.90;1.00;;;;;;5050449;28;19909;-79
2023/01/24 12:39:53;;;;;;;;;;;2.90;1.00;;;;;;5051603;28;19913;-78
2023/01/24 12:42:23;;;;;;;;;;;2.80;1.00;;;;;;5042529;28;19912;-79
2023/01/24 12:44:57;;;;;;;;;;;2.80;1.00;;;;;;5051809;28;20030;-81
2023/01/24 12:47:23;;;;;;;;;;;2.90;1.00;;;;;;5048862;28;19915;-82
2023/01/24 12:50:02;;;;;;;;;;;2.90;1.00;;;;;;5049747;28;19913;-78
2023/01/24 12:52:52;;;;;;;;;;;2.90;1.00;;;;;;5030980;28;20259;-83
2023/01/24 12:55:41;;;;;;;;;;;2.90;1.00;;;;;;5032780;28;20354;-83
2023/01/24 12:58:26;;;;;;;;;;;2.90;1.00;;;;;;5040120;28;19915;-83
2023/01/24 13:00:59;;;;;;;;;;;3.00;1.00;;;;;;5050729;28;19917;-82
2023/01/24 13:03:33;;;;;;;;;;;3.00;1.00;;;;;;5050549;28;19908;-85
2023/01/24 13:06:03;;;;;;;;;;;3.00;1.00;;;;;;5034739;28;19909;-81
2023/01/24 13:08:29;;;;;;;;;;;2.90;1.00;;;;;;5032971;28;19909;-81
2023/01/24 13:10:55;;;;;;;;;;;2.90;1.00;;;;;;5051368;28;19908;-80
2023/01/24 13:13:27;;;;;;;;;;;3.00;1.00;;;;;;5049694;28;19913;-80
2023/01/24 13:16:11;;;;;;;;;;;3.00;1.00;;;;;;5058742;28;19909;-80
2023/01/24 13:18:52;;;;;;;;;;;3.10;1.00;;;;;;5053969;28;19909;-78
2023/01/24 13:21:30;;;;;;;;;;;3.00;1.00;;;;;;5054921;28;19924;-83
2023/01/24 13:24:05;;;;;;;;;;;2.90;1.00;;;;;;5053924;28;19916;-82
2023/01/24 13:26:37;;;;;;;;;;;2.90;1.00;;;;;;5035637;28;19916;-83
2023/01/24 13:29:18;;;;;;;;;;;2.90;1.00;;;;;;5053838;28;19909;-82
2023/01/24 13:31:44;;;;;;;;;;;3.00;1.00;;;;;;5052651;28;20274;-82
2023/01/24 13:34:13;;;;;;;;;;;3.00;1.00;;;;;;5052378;28;19931;-82
2023/01/24 13:36:39;;;;;;;;;;;3.00;1.00;;;;;;5054468;28;19919;-83
2023/01/24 13:39:06;;;;;;;;;;;3.00;1.00;;;;;;5046828;28;19909;-78
2023/01/24 13:41:33;;;;;;;;;;;3.00;1.00;;;;;;5054135;28;19917;-81
2023/01/24 13:44:22;;;;;;;;;;;3.00;1.00;;;;;;5053500;28;20365;-82
2023/01/24 13:46:48;;;;;;;;;;;3.00;1.00;;;;;;5048653;28;19932;-82
2023/01/24 13:49:29;;;;;;;;;;;3.00;1.00;;;;;;5054095;28;19905;-79
2023/01/24 13:51:56;;;;;;;;;;;3.00;1.00;;;;;;5054127;28;19923;-79
2023/01/24 13:54:31;;;;;;;;;;;2.90;1.00;;;;;;5052487;28;19908;-79
2023/01/24 13:57:12;;;;;;;;;;;3.00;1.00;;;;;;5041765;28;19909;-78
2023/01/24 13:59:40;;;;;;;;;;;3.00;1.00;;;;;;5053661;28;19925;-81
2023/01/24 14:02:25;;;;;;;;;;;2.90;1.00;;;;;;5053520;28;20373;-81
2023/01/24 14:04:51;;;;;;;;;;;2.90;1.00;;;;;;5068009;28;19909;-82
2023/01/24 14:07:17;;;;;;;;;;;2.90;1.00;;;;;;5056046;28;20306;-82
2023/01/24 14:09:44;;;;;;;;;;;2.90;1.00;;;;;;5047312;28;19905;-76
2023/01/24 14:12:16;;;;;;;;;;;2.90;1.00;;;;;;5053542;28;19909;-77
2023/01/24 14:14:57;;;;;;;;;;;2.90;1.00;;;;;;5053140;28;19913;-81
2023/01/24 14:17:25;;;;;;;;;;;2.80;1.00;;;;;;5049934;28;20350;-78
2023/01/24 14:19:52;;;;;;;;;;;2.80;1.00;;;;;;5053108;28;19905;-78
2023/01/24 14:22:20;;;;;;;;;;;2.80;1.00;;;;;;5052898;28;19916;-79
2023/01/24 14:24:55;;;;;;;;;;;2.80;1.00;;;;;;5052869;28;19912;-75
2023/01/24 14:27:28;;;;;;;;;;;2.80;1.00;;;;;;5054103;28;20297;-78
2023/01/24 14:29:57;;;;;;;;;;;2.80;1.00;;;;;;5053667;28;19909;-78
2023/01/24 14:32:49;;;;;;;;;;;2.80;1.00;;;;;;5052652;28;20354;-78
2023/01/24 14:35:21;;;;;;;;;;;2.80;1.00;;;;;;5051557;28;20262;-80
2023/01/24 14:37:48;;;;;;;;;;;2.70;1.00;;;;;;5033502;28;19971;-80
2023/01/24 14:40:24;;;;;;;;;;;2.70;1.00;;;;;;5046592;28;19911;-78
2023/01/24 14:42:51;;;;;;;;;;;2.70;1.00;;;;;;5030805;28;19913;-79
2023/01/24 14:45:19;;;;;;;;;;;2.70;1.00;;;;;;5034076;28;19908;-77
2023/01/24 14:47:49;;;;;;;;;;;2.70;1.00;;;;;;5033459;28;19909;-74
2023/01/24 14:50:20;;;;;;;;;;;2.70;1.00;;;;;;5034104;28;20370;-77
2023/01/24 14:52:46;;;;;;;;;;;2.70;1.00;;;;;;5032992;28;19909;-77
2023/01/24 14:55:23;;;;;;;;;;;2.70;1.00;;;;;;5036600;28;19959;-78
2023/01/24 14:57:49;;;;;;;;;;;2.70;1.00;;;;;;5036005;28;20369;-77
2023/01/24 15:00:17;;;;;;;;;;;2.70;1.00;;;;;;5033895;28;19917;-79
2023/01/24 15:02:53;;;;;;;;;;;2.70;1.00;;;;;;5034658;28;19932;-78
2023/01/24 15:05:23;;;;;;;;;;;2.70;1.00;;;;;;5044151;28;19912;-76
2023/01/24 15:07:49;;;;;;;;;;;2.70;1.00;;;;;;5033551;28;19913;-80
2023/01/24 15:10:20;;;;;;;;;;;2.70;1.00;;;;;;5034248;28;19982;-78
2023/01/24 15:12:50;;;;;;;;;;;2.70;1.00;;;;;;5046719;28;19912;-79
2023/01/24 15:15:17;;;;;;;;;;;2.60;1.00;;;;;;5052650;28;19932;-76
2023/01/24 15:17:45;;;;;;;;;;;2.60;1.00;;;;;;5052457;28;19916;-78
2023/01/24 15:20:15;;;;;;;;;;;2.60;1.00;;;;;;5052740;28;19909;-78
2023/01/24 15:22:41;;;;;;;;;;;2.60;1.00;;;;;;5050143;28;19916;-77
2023/01/24 15:25:18;;;;;;;;;;;2.60;1.00;;;;;;5052135;28;19931;-77
2023/01/24 15:27:46;;;;;;;;;;;2.60;1.00;;;;;;5052113;28;20015;-82
2023/01/24 15:30:15;;;;;;;;;;;2.60;1.00;;;;;;5067565;28;19916;-80
2023/01/24 15:32:42;;;;;;;;;;;2.50;1.00;;;;;;5050260;28;19917;-78
2023/01/24 15:35:18;;;;;;;;;;;2.50;1.00;;;;;;5050745;28;19927;-76
2023/01/24 15:37:44;;;;;;;;;;;2.50;1.00;;;;;;5050824;28;19909;-78